sensor_id;sensor_type;location;lat;lon;timestamp;P1;durP1;ratioP1;P2;durP2;ratioP2
79399;SDS011;68856;45.586;10.264;2024-01-30T00:02:19;19.80;;;11.93;;
79399;SDS011;68856;45.586;10.264;2024-01-30T00:04:45;20.40;;;13.77;;
79399;SDS011;68856;45.586;10.264;2024-01-30T00:07:11;22.25;;;15.57;;
79399;SDS011;68856;45.586;10.264;2024-01-30T00:09:38;20.63;;;14.70;;
79399;SDS011;68856;45.586;10.264;2024-01-30T00:12:05;18.48;;;13.27;;
79399;SDS011;68856;45.586;10.264;2024-01-30T00:14:31;20.42;;;13.13;;
79399;SDS011;68856;45.586;10.264;2024-01-30T00:16:58;24.55;;;13.30;;
79399;SDS011;68856;45.586;10.264;2024-01-30T00:19:24;21.33;;;13.77;;
79399;SDS011;68856;45.586;10.264;2024-01-30T00:21:50;17.73;;;12.80;;
79399;SDS011;68856;45.586;10.264;2024-01-30T00:24:16;21.80;;;13.85;;
79399;SDS011;68856;45.586;10.264;2024-01-30T00:26:43;22.45;;;14.88;;
79399;SDS011;68856;45.586;10.264;2024-01-30T00:29:09;25.13;;;15.02;;
79399;SDS011;68856;45.586;10.264;2024-01-30T00:31:36;21.90;;;14.98;;
79399;SDS011;68856;45.586;10.264;2024-01-30T00:34:02;23.88;;;13.73;;
79399;SDS011;68856;45.586;10.264;2024-01-30T00:36:28;21.60;;;15.00;;
79399;SDS011;68856;45.586;10.264;2024-01-30T00:38:55;21.42;;;13.45;;
79399;SDS011;68856;45.586;10.264;2024-01-30T00:41:21;20.15;;;13.35;;
79399;SDS011;68856;45.586;10.264;2024-01-30T00:43:47;21.63;;;13.35;;
79399;SDS011;68856;45.586;10.264;2024-01-30T00:46:14;26.42;;;16.33;;
79399;SDS011;68856;45.586;10.264;2024-01-30T00:48:40;21.40;;;14.05;;
79399;SDS011;68856;45.586;10.264;2024-01-30T00:51:06;19.35;;;13.10;;
79399;SDS011;68856;45.586;10.264;2024-01-30T00:53:33;22.40;;;14.27;;
79399;SDS011;68856;45.586;10.264;2024-01-30T00:55:59;20.25;;;13.82;;
79399;SDS011;68856;45.586;10.264;2024-01-30T00:58:25;21.98;;;12.88;;
79399;SDS011;68856;45.586;10.264;2024-01-30T01:00:51;21.70;;;13.70;;
79399;SDS011;68856;45.586;10.264;2024-01-30T01:03:17;21.98;;;14.02;;
79399;SDS011;68856;45.586;10.264;2024-01-30T01:05:44;24.55;;;14.52;;
79399;SDS011;68856;45.586;10.264;2024-01-30T01:08:10;20.60;;;13.48;;
79399;SDS011;68856;45.586;10.264;2024-01-30T01:10:37;22.52;;;15.68;;
79399;SDS011;68856;45.586;10.264;2024-01-30T01:13:03;23.38;;;14.63;;
79399;SDS011;68856;45.586;10.264;2024-01-30T01:15:29;19.80;;;12.35;;
79399;SDS011;68856;45.586;10.264;2024-01-30T01:17:55;16.48;;;11.27;;
79399;SDS011;68856;45.586;10.264;2024-01-30T01:20:22;20.67;;;12.82;;
79399;SDS011;68856;45.586;10.264;2024-01-30T01:22:48;18.38;;;11.68;;
79399;SDS011;68856;45.586;10.264;2024-01-30T01:25:14;18.30;;;12.35;;
79399;SDS011;68856;45.586;10.264;2024-01-30T01:27:40;18.27;;;10.38;;
79399;SDS011;68856;45.586;10.264;2024-01-30T01:30:10;17.08;;;10.82;;
79399;SDS011;68856;45.586;10.264;2024-01-30T01:32:39;15.60;;;10.52;;
79399;SDS011;68856;45.586;10.264;2024-01-30T01:35:09;14.48;;;9.95;;
79399;SDS011;68856;45.586;10.264;2024-01-30T01:37:36;19.48;;;10.73;;
79399;SDS011;68856;45.586;10.264;2024-01-30T01:40:02;15.05;;;10.50;;
79399;SDS011;68856;45.586;10.264;2024-01-30T01:42:28;16.10;;;11.27;;
79399;SDS011;68856;45.586;10.264;2024-01-30T01:44:55;15.85;;;9.93;;
79399;SDS011;68856;45.586;10.264;2024-01-30T01:47:21;15.68;;;10.63;;
79399;SDS011;68856;45.586;10.264;2024-01-30T01:49:47;13.55;;;9.98;;
79399;SDS011;68856;45.586;10.264;2024-01-30T01:52:14;19.65;;;12.30;;
79399;SDS011;68856;45.586;10.264;2024-01-30T01:54:42;13.55;;;10.38;;
79399;SDS011;68856;45.586;10.264;2024-01-30T01:57:08;14.35;;;10.07;;
79399;SDS011;68856;45.586;10.264;2024-01-30T01:59:34;15.40;;;9.82;;
79399;SDS011;68856;45.586;10.264;2024-01-30T02:02:01;16.38;;;10.73;;
79399;SDS011;68856;45.586;10.264;2024-01-30T02:04:28;13.85;;;10.00;;
79399;SDS011;68856;45.586;10.264;2024-01-30T02:06:54;16.65;;;10.57;;
79399;SDS011;68856;45.586;10.264;2024-01-30T02:09:21;16.52;;;11.02;;
79399;SDS011;68856;45.586;10.264;2024-01-30T02:11:47;16.88;;;10.88;;
79399;SDS011;68856;45.586;10.264;2024-01-30T02:14:13;15.27;;;10.60;;
79399;SDS011;68856;45.586;10.264;2024-01-30T02:16:40;15.60;;;11.00;;
79399;SDS011;68856;45.586;10.264;2024-01-30T02:19:06;17.50;;;11.27;;
79399;SDS011;68856;45.586;10.264;2024-01-30T02:21:32;19.10;;;11.32;;
79399;SDS011;68856;45.586;10.264;2024-01-30T02:23:59;17.98;;;11.00;;
79399;SDS011;68856;45.586;10.264;2024-01-30T02:26:26;13.77;;;10.43;;
79399;SDS011;68856;45.586;10.264;2024-01-30T02:28:52;13.13;;;9.38;;
79399;SDS011;68856;45.586;10.264;2024-01-30T02:31:18;16.63;;;9.95;;
79399;SDS011;68856;45.586;10.264;2024-01-30T02:33:44;12.55;;;8.40;;
79399;SDS011;68856;45.586;10.264;2024-01-30T02:36:11;14.30;;;8.93;;
79399;SDS011;68856;45.586;10.264;2024-01-30T02:38:37;13.00;;;9.05;;
79399;SDS011;68856;45.586;10.264;2024-01-30T02:41:03;11.90;;;8.75;;
79399;SDS011;68856;45.586;10.264;2024-01-30T02:43:29;12.73;;;9.45;;
79399;SDS011;68856;45.586;10.264;2024-01-30T02:45:56;14.40;;;9.43;;
79399;SDS011;68856;45.586;10.264;2024-01-30T02:48:23;16.33;;;10.90;;
79399;SDS011;68856;45.586;10.264;2024-01-30T02:50:49;13.52;;;8.80;;
79399;SDS011;68856;45.586;10.264;2024-01-30T02:53:15;13.85;;;9.13;;
79399;SDS011;68856;45.586;10.264;2024-01-30T02:55:42;13.40;;;9.45;;
79399;SDS011;68856;45.586;10.264;2024-01-30T02:58:08;14.02;;;8.65;;
79399;SDS011;68856;45.586;10.264;2024-01-30T03:00:34;11.70;;;8.88;;
79399;SDS011;68856;45.586;10.264;2024-01-30T03:03:00;13.07;;;8.73;;
79399;SDS011;68856;45.586;10.264;2024-01-30T03:05:27;14.90;;;9.05;;
79399;SDS011;68856;45.586;10.264;2024-01-30T03:07:53;12.52;;;8.70;;
79399;SDS011;68856;45.586;10.264;2024-01-30T03:10:19;13.30;;;8.52;;
79399;SDS011;68856;45.586;10.264;2024-01-30T03:12:45;13.90;;;9.18;;
79399;SDS011;68856;45.586;10.264;2024-01-30T03:15:12;11.55;;;8.57;;
79399;SDS011;68856;45.586;10.264;2024-01-30T03:17:38;12.98;;;8.80;;
79399;SDS011;68856;45.586;10.264;2024-01-30T03:20:04;13.93;;;9.60;;
79399;SDS011;68856;45.586;10.264;2024-01-30T03:22:31;14.13;;;9.43;;
79399;SDS011;68856;45.586;10.264;2024-01-30T03:24:57;14.95;;;9.68;;
79399;SDS011;68856;45.586;10.264;2024-01-30T03:27:24;13.35;;;9.40;;
79399;SDS011;68856;45.586;10.264;2024-01-30T03:29:50;15.13;;;9.68;;
79399;SDS011;68856;45.586;10.264;2024-01-30T03:32:17;14.65;;;9.27;;
79399;SDS011;68856;45.586;10.264;2024-01-30T03:34:43;13.40;;;8.70;;
79399;SDS011;68856;45.586;10.264;2024-01-30T03:37:09;11.40;;;8.77;;
79399;SDS011;68856;45.586;10.264;2024-01-30T03:39:35;17.38;;;9.50;;
79399;SDS011;68856;45.586;10.264;2024-01-30T03:42:02;12.38;;;8.02;;
79399;SDS011;68856;45.586;10.264;2024-01-30T03:44:28;11.95;;;8.88;;
79399;SDS011;68856;45.586;10.264;2024-01-30T03:46:54;14.25;;;8.60;;
79399;SDS011;68856;45.586;10.264;2024-01-30T03:49:20;12.32;;;8.38;;
79399;SDS011;68856;45.586;10.264;2024-01-30T03:51:47;11.70;;;8.88;;
79399;SDS011;68856;45.586;10.264;2024-01-30T03:54:13;11.57;;;8.10;;
79399;SDS011;68856;45.586;10.264;2024-01-30T03:56:39;14.93;;;8.60;;
79399;SDS011;68856;45.586;10.264;2024-01-30T03:59:05;10.55;;;6.95;;
79399;SDS011;68856;45.586;10.264;2024-01-30T04:01:32;12.73;;;6.88;;
79399;SDS011;68856;45.586;10.264;2024-01-30T04:03:58;11.45;;;7.50;;
79399;SDS011;68856;45.586;10.264;2024-01-30T04:06:24;12.57;;;7.78;;
79399;SDS011;68856;45.586;10.264;2024-01-30T04:08:51;11.88;;;7.95;;
79399;SDS011;68856;45.586;10.264;2024-01-30T04:11:20;11.55;;;7.53;;
79399;SDS011;68856;45.586;10.264;2024-01-30T04:13:47;13.18;;;7.30;;
79399;SDS011;68856;45.586;10.264;2024-01-30T04:16:20;10.25;;;7.18;;
79399;SDS011;68856;45.586;10.264;2024-01-30T04:18:47;12.98;;;8.25;;
79399;SDS011;68856;45.586;10.264;2024-01-30T04:21:13;11.07;;;7.88;;
79399;SDS011;68856;45.586;10.264;2024-01-30T04:23:40;11.50;;;7.20;;
79399;SDS011;68856;45.586;10.264;2024-01-30T04:26:06;13.48;;;7.40;;
79399;SDS011;68856;45.586;10.264;2024-01-30T04:28:33;12.80;;;8.80;;
79399;SDS011;68856;45.586;10.264;2024-01-30T04:30:59;12.95;;;8.95;;
79399;SDS011;68856;45.586;10.264;2024-01-30T04:33:25;12.65;;;7.53;;
79399;SDS011;68856;45.586;10.264;2024-01-30T04:35:52;16.52;;;9.63;;
79399;SDS011;68856;45.586;10.264;2024-01-30T04:38:18;13.38;;;7.88;;
79399;SDS011;68856;45.586;10.264;2024-01-30T04:40:44;18.42;;;9.05;;
79399;SDS011;68856;45.586;10.264;2024-01-30T04:43:10;13.50;;;8.27;;
79399;SDS011;68856;45.586;10.264;2024-01-30T04:45:36;11.85;;;8.52;;
79399;SDS011;68856;45.586;10.264;2024-01-30T04:48:03;12.13;;;8.38;;
79399;SDS011;68856;45.586;10.264;2024-01-30T04:50:29;11.57;;;7.05;;
79399;SDS011;68856;45.586;10.264;2024-01-30T04:52:55;13.32;;;6.88;;
79399;SDS011;68856;45.586;10.264;2024-01-30T04:55:21;11.52;;;7.55;;
79399;SDS011;68856;45.586;10.264;2024-01-30T04:57:48;13.15;;;8.32;;
79399;SDS011;68856;45.586;10.264;2024-01-30T05:00:14;11.60;;;6.80;;
79399;SDS011;68856;45.586;10.264;2024-01-30T05:02:41;10.15;;;7.20;;
79399;SDS011;68856;45.586;10.264;2024-01-30T05:05:07;9.93;;;7.20;;
79399;SDS011;68856;45.586;10.264;2024-01-30T05:07:33;10.32;;;6.88;;
79399;SDS011;68856;45.586;10.264;2024-01-30T05:10:00;8.18;;;6.22;;
79399;SDS011;68856;45.586;10.264;2024-01-30T05:12:26;11.52;;;7.03;;
79399;SDS011;68856;45.586;10.264;2024-01-30T05:14:52;8.93;;;6.50;;
79399;SDS011;68856;45.586;10.264;2024-01-30T05:17:18;14.18;;;7.13;;
79399;SDS011;68856;45.586;10.264;2024-01-30T05:19:45;10.23;;;7.05;;
79399;SDS011;68856;45.586;10.264;2024-01-30T05:22:11;10.77;;;6.63;;
79399;SDS011;68856;45.586;10.264;2024-01-30T05:24:40;13.93;;;7.90;;
79399;SDS011;68856;45.586;10.264;2024-01-30T05:27:10;10.05;;;6.97;;
79399;SDS011;68856;45.586;10.264;2024-01-30T05:29:38;14.35;;;7.45;;
79399;SDS011;68856;45.586;10.264;2024-01-30T05:32:05;13.45;;;7.82;;
79399;SDS011;68856;45.586;10.264;2024-01-30T05:34:32;12.88;;;7.50;;
79399;SDS011;68856;45.586;10.264;2024-01-30T05:36:58;13.40;;;6.80;;
79399;SDS011;68856;45.586;10.264;2024-01-30T05:39:24;11.73;;;7.22;;
79399;SDS011;68856;45.586;10.264;2024-01-30T05:41:50;9.25;;;6.50;;
79399;SDS011;68856;45.586;10.264;2024-01-30T05:44:17;10.70;;;6.63;;
79399;SDS011;68856;45.586;10.264;2024-01-30T05:46:43;11.63;;;7.25;;
79399;SDS011;68856;45.586;10.264;2024-01-30T05:49:09;9.75;;;5.90;;
79399;SDS011;68856;45.586;10.264;2024-01-30T05:51:35;12.02;;;5.40;;
79399;SDS011;68856;45.586;10.264;2024-01-30T05:54:02;9.68;;;5.60;;
79399;SDS011;68856;45.586;10.264;2024-01-30T05:56:29;7.32;;;5.72;;
79399;SDS011;68856;45.586;10.264;2024-01-30T05:58:55;7.90;;;5.70;;
79399;SDS011;68856;45.586;10.264;2024-01-30T06:01:22;7.57;;;5.47;;
79399;SDS011;68856;45.586;10.264;2024-01-30T06:03:48;7.10;;;5.03;;
79399;SDS011;68856;45.586;10.264;2024-01-30T06:06:14;9.30;;;5.40;;
79399;SDS011;68856;45.586;10.264;2024-01-30T06:08:40;9.90;;;5.70;;
79399;SDS011;68856;45.586;10.264;2024-01-30T06:11:09;7.55;;;5.65;;
79399;SDS011;68856;45.586;10.264;2024-01-30T06:13:36;16.53;;;6.93;;
79399;SDS011;68856;45.586;10.264;2024-01-30T06:16:03;13.80;;;6.75;;
79399;SDS011;68856;45.586;10.264;2024-01-30T06:18:29;13.90;;;6.72;;
79399;SDS011;68856;45.586;10.264;2024-01-30T06:20:56;10.50;;;6.18;;
79399;SDS011;68856;45.586;10.264;2024-01-30T06:23:22;14.68;;;7.22;;
79399;SDS011;68856;45.586;10.264;2024-01-30T06:25:48;22.90;;;7.10;;
79399;SDS011;68856;45.586;10.264;2024-01-30T06:28:15;18.15;;;8.50;;
79399;SDS011;68856;45.586;10.264;2024-01-30T06:30:41;14.40;;;7.32;;
79399;SDS011;68856;45.586;10.264;2024-01-30T06:33:08;14.82;;;7.30;;
79399;SDS011;68856;45.586;10.264;2024-01-30T06:35:36;14.95;;;6.95;;
79399;SDS011;68856;45.586;10.264;2024-01-30T06:38:05;14.40;;;7.38;;
79399;SDS011;68856;45.586;10.264;2024-01-30T06:40:31;14.57;;;7.32;;
79399;SDS011;68856;45.586;10.264;2024-01-30T06:42:57;14.35;;;7.10;;
79399;SDS011;68856;45.586;10.264;2024-01-30T06:45:24;12.07;;;7.00;;
79399;SDS011;68856;45.586;10.264;2024-01-30T06:47:50;11.18;;;7.03;;
79399;SDS011;68856;45.586;10.264;2024-01-30T06:50:16;16.35;;;7.78;;
79399;SDS011;68856;45.586;10.264;2024-01-30T06:52:42;10.45;;;6.88;;
79399;SDS011;68856;45.586;10.264;2024-01-30T06:55:09;10.93;;;6.38;;
79399;SDS011;68856;45.586;10.264;2024-01-30T06:57:35;14.30;;;7.00;;
79399;SDS011;68856;45.586;10.264;2024-01-30T07:00:01;10.73;;;6.10;;
79399;SDS011;68856;45.586;10.264;2024-01-30T07:02:28;12.68;;;7.15;;
79399;SDS011;68856;45.586;10.264;2024-01-30T07:04:54;10.68;;;6.15;;
79399;SDS011;68856;45.586;10.264;2024-01-30T07:07:20;10.70;;;6.70;;
79399;SDS011;68856;45.586;10.264;2024-01-30T07:09:47;19.40;;;9.55;;
79399;SDS011;68856;45.586;10.264;2024-01-30T07:12:16;18.30;;;9.32;;
79399;SDS011;68856;45.586;10.264;2024-01-30T07:14:42;12.65;;;7.80;;
79399;SDS011;68856;45.586;10.264;2024-01-30T07:17:08;15.45;;;7.28;;
79399;SDS011;68856;45.586;10.264;2024-01-30T07:19:35;15.02;;;8.10;;
79399;SDS011;68856;45.586;10.264;2024-01-30T07:22:01;11.63;;;7.68;;
79399;SDS011;68856;45.586;10.264;2024-01-30T07:24:27;13.65;;;6.13;;
79399;SDS011;68856;45.586;10.264;2024-01-30T07:26:53;12.40;;;7.22;;
79399;SDS011;68856;45.586;10.264;2024-01-30T07:29:19;9.43;;;6.10;;
79399;SDS011;68856;45.586;10.264;2024-01-30T07:31:46;13.75;;;7.85;;
79399;SDS011;68856;45.586;10.264;2024-01-30T07:34:13;11.75;;;6.70;;
79399;SDS011;68856;45.586;10.264;2024-01-30T07:36:39;14.95;;;8.30;;
79399;SDS011;68856;45.586;10.264;2024-01-30T07:39:05;12.50;;;8.55;;
79399;SDS011;68856;45.586;10.264;2024-01-30T07:41:32;14.50;;;8.90;;
79399;SDS011;68856;45.586;10.264;2024-01-30T07:43:58;14.60;;;8.27;;
79399;SDS011;68856;45.586;10.264;2024-01-30T07:46:24;12.65;;;7.18;;
79399;SDS011;68856;45.586;10.264;2024-01-30T07:48:50;20.40;;;8.30;;
79399;SDS011;68856;45.586;10.264;2024-01-30T07:51:17;16.98;;;7.75;;
79399;SDS011;68856;45.586;10.264;2024-01-30T07:53:43;13.75;;;8.95;;
79399;SDS011;68856;45.586;10.264;2024-01-30T07:56:10;12.48;;;8.43;;
79399;SDS011;68856;45.586;10.264;2024-01-30T07:58:37;16.60;;;9.57;;
79399;SDS011;68856;45.586;10.264;2024-01-30T08:01:03;17.48;;;11.45;;
79399;SDS011;68856;45.586;10.264;2024-01-30T08:03:29;15.73;;;9.73;;
79399;SDS011;68856;45.586;10.264;2024-01-30T08:05:55;25.05;;;15.73;;
79399;SDS011;68856;45.586;10.264;2024-01-30T08:08:21;23.95;;;13.27;;
79399;SDS011;68856;45.586;10.264;2024-01-30T08:10:48;21.90;;;12.15;;
79399;SDS011;68856;45.586;10.264;2024-01-30T08:13:14;24.20;;;14.95;;
79399;SDS011;68856;45.586;10.264;2024-01-30T08:15:41;29.17;;;16.65;;
79399;SDS011;68856;45.586;10.264;2024-01-30T08:18:07;33.05;;;18.17;;
79399;SDS011;68856;45.586;10.264;2024-01-30T08:20:33;32.80;;;20.85;;
79399;SDS011;68856;45.586;10.264;2024-01-30T08:23:00;29.55;;;18.80;;
79399;SDS011;68856;45.586;10.264;2024-01-30T08:25:26;31.05;;;19.63;;
79399;SDS011;68856;45.586;10.264;2024-01-30T08:27:52;31.52;;;20.88;;
79399;SDS011;68856;45.586;10.264;2024-01-30T08:30:19;30.63;;;21.00;;
79399;SDS011;68856;45.586;10.264;2024-01-30T08:32:45;53.40;;;26.40;;
79399;SDS011;68856;45.586;10.264;2024-01-30T08:35:12;42.35;;;23.50;;
79399;SDS011;68856;45.586;10.264;2024-01-30T08:37:40;29.85;;;17.95;;
79399;SDS011;68856;45.586;10.264;2024-01-30T08:40:07;26.17;;;18.60;;
79399;SDS011;68856;45.586;10.264;2024-01-30T08:42:34;25.42;;;16.60;;
79399;SDS011;68856;45.586;10.264;2024-01-30T08:45:00;26.65;;;16.25;;
79399;SDS011;68856;45.586;10.264;2024-01-30T08:47:27;26.52;;;16.80;;
79399;SDS011;68856;45.586;10.264;2024-01-30T08:49:53;26.80;;;17.23;;
79399;SDS011;68856;45.586;10.264;2024-01-30T08:52:19;25.88;;;15.45;;
79399;SDS011;68856;45.586;10.264;2024-01-30T08:54:46;22.70;;;14.50;;
79399;SDS011;68856;45.586;10.264;2024-01-30T08:57:12;28.45;;;15.02;;
79399;SDS011;68856;45.586;10.264;2024-01-30T08:59:38;23.25;;;13.95;;
79399;SDS011;68856;45.586;10.264;2024-01-30T09:02:05;27.38;;;14.80;;
79399;SDS011;68856;45.586;10.264;2024-01-30T09:04:31;27.77;;;14.40;;
79399;SDS011;68856;45.586;10.264;2024-01-30T09:06:57;23.13;;;15.48;;
79399;SDS011;68856;45.586;10.264;2024-01-30T09:09:24;22.23;;;14.95;;
79399;SDS011;68856;45.586;10.264;2024-01-30T09:11:50;25.60;;;15.32;;
79399;SDS011;68856;45.586;10.264;2024-01-30T09:14:16;28.13;;;16.45;;
79399;SDS011;68856;45.586;10.264;2024-01-30T09:16:42;24.48;;;17.55;;
79399;SDS011;68856;45.586;10.264;2024-01-30T09:19:09;34.88;;;17.10;;
79399;SDS011;68856;45.586;10.264;2024-01-30T09:21:35;29.13;;;17.45;;
79399;SDS011;68856;45.586;10.264;2024-01-30T09:24:02;23.77;;;15.75;;
79399;SDS011;68856;45.586;10.264;2024-01-30T09:26:29;26.65;;;15.43;;
79399;SDS011;68856;45.586;10.264;2024-01-30T09:28:55;22.50;;;14.70;;
79399;SDS011;68856;45.586;10.264;2024-01-30T09:31:21;22.38;;;14.52;;
79399;SDS011;68856;45.586;10.264;2024-01-30T09:33:48;19.58;;;12.35;;
79399;SDS011;68856;45.586;10.264;2024-01-30T09:36:16;22.58;;;12.23;;
79399;SDS011;68856;45.586;10.264;2024-01-30T09:38:44;20.20;;;12.02;;
79399;SDS011;68856;45.586;10.264;2024-01-30T09:41:11;15.57;;;10.88;;
79399;SDS011;68856;45.586;10.264;2024-01-30T09:43:37;23.42;;;12.18;;
79399;SDS011;68856;45.586;10.264;2024-01-30T09:46:07;16.23;;;11.25;;
79399;SDS011;68856;45.586;10.264;2024-01-30T09:48:41;17.88;;;15.82;;
79399;SDS011;68856;45.586;10.264;2024-01-30T09:51:10;14.60;;;10.23;;
79399;SDS011;68856;45.586;10.264;2024-01-30T09:53:39;18.55;;;11.20;;
79399;SDS011;68856;45.586;10.264;2024-01-30T09:56:08;15.32;;;10.13;;
79399;SDS011;68856;45.586;10.264;2024-01-30T09:58:34;12.77;;;8.57;;
79399;SDS011;68856;45.586;10.264;2024-01-30T10:01:00;14.15;;;9.45;;
79399;SDS011;68856;45.586;10.264;2024-01-30T10:03:27;12.68;;;8.82;;
79399;SDS011;68856;45.586;10.264;2024-01-30T10:05:53;10.65;;;8.38;;
79399;SDS011;68856;45.586;10.264;2024-01-30T10:08:21;13.80;;;8.48;;
79399;SDS011;68856;45.586;10.264;2024-01-30T10:10:47;14.02;;;9.32;;
79399;SDS011;68856;45.586;10.264;2024-01-30T10:13:15;19.00;;;10.07;;
79399;SDS011;68856;45.586;10.264;2024-01-30T10:15:41;16.27;;;10.00;;
79399;SDS011;68856;45.586;10.264;2024-01-30T10:18:08;15.80;;;9.52;;
79399;SDS011;68856;45.586;10.264;2024-01-30T10:20:35;18.13;;;10.93;;
79399;SDS011;68856;45.586;10.264;2024-01-30T10:23:02;16.05;;;10.55;;
79399;SDS011;68856;45.586;10.264;2024-01-30T10:25:29;16.73;;;12.23;;
79399;SDS011;68856;45.586;10.264;2024-01-30T10:27:58;18.02;;;12.32;;
79399;SDS011;68856;45.586;10.264;2024-01-30T10:30:25;17.73;;;12.27;;
79399;SDS011;68856;45.586;10.264;2024-01-30T10:32:52;20.35;;;12.60;;
79399;SDS011;68856;45.586;10.264;2024-01-30T10:35:18;27.45;;;14.80;;
79399;SDS011;68856;45.586;10.264;2024-01-30T10:37:44;23.25;;;13.77;;
79399;SDS011;68856;45.586;10.264;2024-01-30T10:40:13;23.05;;;13.45;;
79399;SDS011;68856;45.586;10.264;2024-01-30T10:42:44;19.85;;;13.98;;
79399;SDS011;68856;45.586;10.264;2024-01-30T10:45:14;17.80;;;12.07;;
79399;SDS011;68856;45.586;10.264;2024-01-30T10:47:43;20.07;;;14.17;;
79399;SDS011;68856;45.586;10.264;2024-01-30T10:50:14;23.10;;;13.65;;
79399;SDS011;68856;45.586;10.264;2024-01-30T10:52:41;21.85;;;13.80;;
79399;SDS011;68856;45.586;10.264;2024-01-30T10:55:08;19.77;;;12.07;;
79399;SDS011;68856;45.586;10.264;2024-01-30T10:57:35;17.70;;;11.00;;
79399;SDS011;68856;45.586;10.264;2024-01-30T11:00:11;22.58;;;13.77;;
79399;SDS011;68856;45.586;10.264;2024-01-30T11:02:43;21.80;;;15.95;;
79399;SDS011;68856;45.586;10.264;2024-01-30T11:05:11;23.75;;;14.95;;
79399;SDS011;68856;45.586;10.264;2024-01-30T11:07:41;19.70;;;14.30;;
79399;SDS011;68856;45.586;10.264;2024-01-30T11:10:08;23.50;;;15.07;;
79399;SDS011;68856;45.586;10.264;2024-01-30T11:12:38;24.52;;;14.90;;
79399;SDS011;68856;45.586;10.264;2024-01-30T11:17:47;24.85;;;15.32;;
79399;SDS011;68856;45.586;10.264;2024-01-30T11:20:20;26.77;;;16.85;;
79399;SDS011;68856;45.586;10.264;2024-01-30T11:22:53;22.92;;;16.30;;
79399;SDS011;68856;45.586;10.264;2024-01-30T11:25:21;25.60;;;17.63;;
79399;SDS011;68856;45.586;10.264;2024-01-30T11:27:49;26.50;;;17.25;;
79399;SDS011;68856;45.586;10.264;2024-01-30T11:30:24;27.73;;;17.88;;
79399;SDS011;68856;45.586;10.264;2024-01-30T11:33:01;22.08;;;17.30;;
79399;SDS011;68856;45.586;10.264;2024-01-30T11:35:37;20.85;;;15.85;;
79399;SDS011;68856;45.586;10.264;2024-01-30T11:38:05;26.30;;;16.45;;
79399;SDS011;68856;45.586;10.264;2024-01-30T11:40:32;23.50;;;15.13;;
79399;SDS011;68856;45.586;10.264;2024-01-30T11:43:00;22.77;;;16.35;;
79399;SDS011;68856;45.586;10.264;2024-01-30T11:45:28;19.77;;;15.95;;
79399;SDS011;68856;45.586;10.264;2024-01-30T11:47:54;23.45;;;16.42;;
79399;SDS011;68856;45.586;10.264;2024-01-30T11:50:21;24.92;;;16.20;;
79399;SDS011;68856;45.586;10.264;2024-01-30T11:52:48;23.25;;;16.88;;
79399;SDS011;68856;45.586;10.264;2024-01-30T11:55:15;20.73;;;15.45;;
79399;SDS011;68856;45.586;10.264;2024-01-30T11:57:42;23.50;;;16.98;;
79399;SDS011;68856;45.586;10.264;2024-01-30T12:00:17;20.60;;;15.43;;
79399;SDS011;68856;45.586;10.264;2024-01-30T12:02:44;24.95;;;17.65;;
79399;SDS011;68856;45.586;10.264;2024-01-30T12:05:15;20.80;;;16.30;;
79399;SDS011;68856;45.586;10.264;2024-01-30T12:07:44;18.73;;;15.13;;
79399;SDS011;68856;45.586;10.264;2024-01-30T12:10:12;19.05;;;15.35;;
79399;SDS011;68856;45.586;10.264;2024-01-30T12:12:42;21.98;;;17.42;;
79399;SDS011;68856;45.586;10.264;2024-01-30T12:15:10;23.05;;;16.92;;
79399;SDS011;68856;45.586;10.264;2024-01-30T12:17:37;24.15;;;18.10;;
79399;SDS011;68856;45.586;10.264;2024-01-30T12:20:07;23.60;;;17.33;;
79399;SDS011;68856;45.586;10.264;2024-01-30T12:22:37;20.80;;;17.25;;
79399;SDS011;68856;45.586;10.264;2024-01-30T12:25:07;20.40;;;16.27;;
79399;SDS011;68856;45.586;10.264;2024-01-30T12:27:38;23.23;;;17.90;;
79399;SDS011;68856;45.586;10.264;2024-01-30T12:30:07;21.58;;;17.63;;
79399;SDS011;68856;45.586;10.264;2024-01-30T12:32:35;25.58;;;17.33;;
79399;SDS011;68856;45.586;10.264;2024-01-30T12:35:02;20.63;;;16.73;;
79399;SDS011;68856;45.586;10.264;2024-01-30T12:37:29;20.58;;;17.02;;
79399;SDS011;68856;45.586;10.264;2024-01-30T12:39:56;23.88;;;17.95;;
79399;SDS011;68856;45.586;10.264;2024-01-30T12:42:23;20.25;;;16.90;;
79399;SDS011;68856;45.586;10.264;2024-01-30T12:44:49;18.17;;;15.00;;
79399;SDS011;68856;45.586;10.264;2024-01-30T12:47:15;15.95;;;14.10;;
79399;SDS011;68856;45.586;10.264;2024-01-30T12:49:42;18.65;;;14.82;;
79399;SDS011;68856;45.586;10.264;2024-01-30T12:52:10;16.45;;;14.13;;
79399;SDS011;68856;45.586;10.264;2024-01-30T12:54:37;15.98;;;12.45;;
79399;SDS011;68856;45.586;10.264;2024-01-30T12:57:04;14.65;;;13.07;;
79399;SDS011;68856;45.586;10.264;2024-01-30T12:59:31;14.57;;;12.48;;
79399;SDS011;68856;45.586;10.264;2024-01-30T13:01:58;15.43;;;12.02;;
79399;SDS011;68856;45.586;10.264;2024-01-30T13:04:25;12.57;;;11.05;;
79399;SDS011;68856;45.586;10.264;2024-01-30T13:06:52;11.20;;;10.00;;
79399;SDS011;68856;45.586;10.264;2024-01-30T13:09:18;11.82;;;10.23;;
79399;SDS011;68856;45.586;10.264;2024-01-30T13:11:45;15.32;;;12.20;;
79399;SDS011;68856;45.586;10.264;2024-01-30T13:14:12;14.23;;;12.73;;
79399;SDS011;68856;45.586;10.264;2024-01-30T13:16:38;15.70;;;13.68;;
79399;SDS011;68856;45.586;10.264;2024-01-30T13:19:04;14.18;;;10.98;;
79399;SDS011;68856;45.586;10.264;2024-01-30T13:21:31;13.05;;;11.52;;
79399;SDS011;68856;45.586;10.264;2024-01-30T13:23:57;15.02;;;13.48;;
79399;SDS011;68856;45.586;10.264;2024-01-30T13:26:23;17.05;;;13.50;;
79399;SDS011;68856;45.586;10.264;2024-01-30T13:28:49;17.30;;;15.23;;
79399;SDS011;68856;45.586;10.264;2024-01-30T13:31:16;22.52;;;15.88;;
79399;SDS011;68856;45.586;10.264;2024-01-30T13:33:44;16.75;;;14.95;;
79399;SDS011;68856;45.586;10.264;2024-01-30T13:36:10;18.88;;;14.55;;
79399;SDS011;68856;45.586;10.264;2024-01-30T13:38:37;14.82;;;13.30;;
79399;SDS011;68856;45.586;10.264;2024-01-30T13:41:04;19.38;;;15.88;;
79399;SDS011;68856;45.586;10.264;2024-01-30T13:43:30;16.88;;;14.45;;
79399;SDS011;68856;45.586;10.264;2024-01-30T13:45:57;16.75;;;13.73;;
79399;SDS011;68856;45.586;10.264;2024-01-30T13:48:23;16.27;;;14.57;;
79399;SDS011;68856;45.586;10.264;2024-01-30T13:50:50;22.75;;;14.85;;
79399;SDS011;68856;45.586;10.264;2024-01-30T13:53:18;16.58;;;14.80;;
79399;SDS011;68856;45.586;10.264;2024-01-30T13:55:44;19.23;;;14.48;;
79399;SDS011;68856;45.586;10.264;2024-01-30T13:58:10;18.95;;;16.42;;
79399;SDS011;68856;45.586;10.264;2024-01-30T14:00:37;17.73;;;15.40;;
79399;SDS011;68856;45.586;10.264;2024-01-30T14:03:03;20.92;;;15.77;;
79399;SDS011;68856;45.586;10.264;2024-01-30T14:05:30;19.90;;;17.05;;
79399;SDS011;68856;45.586;10.264;2024-01-30T14:07:56;20.63;;;17.35;;
79399;SDS011;68856;45.586;10.264;2024-01-30T14:10:24;21.15;;;18.08;;
79399;SDS011;68856;45.586;10.264;2024-01-30T14:12:51;21.70;;;18.02;;
79399;SDS011;68856;45.586;10.264;2024-01-30T14:15:17;24.75;;;18.48;;